createdAt,value
2018-08-31T00:00:52.778Z,74.80
2018-08-31T00:03:33.798Z,74.70
2018-08-31T00:06:13.422Z,75.00
2018-08-31T00:08:52.158Z,75.50
2018-08-31T00:11:31.059Z,75.70
2018-08-31T00:13:59.289Z,75.60
2018-08-31T00:16:27.534Z,75.50
2018-08-31T00:18:55.794Z,75.40
2018-08-31T00:21:24.251Z,75.40
2018-08-31T00:24:03.791Z,75.40
2018-08-31T00:26:43.540Z,75.50
2018-08-31T00:29:49.487Z,75.20
2018-08-31T00:33:29.702Z,75.30
2018-08-31T00:36:38.953Z,75.60
2018-08-31T00:39:17.657Z,76.60
2018-08-31T00:41:59.377Z,76.80
2018-08-31T00:45:39.111Z,77.00
2018-08-31T00:48:07.798Z,76.60
2018-08-31T00:50:36.403Z,76.50
2018-08-31T00:53:05.526Z,76.80
2018-08-31T00:55:33.901Z,77.20
2018-08-31T00:58:02.192Z,77.80
2018-08-31T01:00:30.454Z,77.60
2018-08-31T01:02:58.845Z,77.70
2018-08-31T01:05:27.262Z,77.80
2018-08-31T01:07:55.511Z,77.70
2018-08-31T01:10:24.648Z,77.70
2018-08-31T01:12:53.744Z,78.10
2018-08-31T01:15:22.014Z,78.30
2018-08-31T01:17:50.321Z,78.50
2018-08-31T01:20:18.591Z,78.60
2018-08-31T01:22:46.859Z,78.60
2018-08-31T01:25:15.193Z,78.50
2018-08-31T01:27:43.469Z,78.50
2018-08-31T01:30:11.686Z,78.60
2018-08-31T01:32:39.960Z,78.50
2018-08-31T01:35:08.229Z,78.80
2018-08-31T01:37:36.554Z,79.20
2018-08-31T01:40:04.872Z,79.50
2018-08-31T01:42:33.247Z,79.60
2018-08-31T01:45:01.606Z,79.40
2018-08-31T01:47:29.921Z,79.70
2018-08-31T01:49:58.216Z,79.60
2018-08-31T01:52:26.446Z,79.60
2018-08-31T01:54:54.824Z,79.80
2018-08-31T01:57:23.086Z,79.80
2018-08-31T01:59:51.473Z,79.80
2018-08-31T02:02:22.040Z,79.80
2018-08-31T02:04:50.391Z,79.90
2018-08-31T02:07:18.606Z,79.70
2018-08-31T02:09:46.974Z,80.20
2018-08-31T02:12:15.295Z,80.40
2018-08-31T02:14:43.705Z,80.40
2018-08-31T02:17:11.986Z,80.90
2018-08-31T02:19:40.230Z,80.70
2018-08-31T02:22:08.501Z,80.20
2018-08-31T02:24:36.726Z,80.70
2018-08-31T02:27:04.975Z,80.50
2018-08-31T02:29:33.197Z,80.70
2018-08-31T02:32:01.498Z,80.50
2018-08-31T02:34:29.826Z,80.80
2018-08-31T02:36:58.079Z,81.10
2018-08-31T02:39:26.571Z,81.20
2018-08-31T02:41:55.672Z,81.40
2018-08-31T02:44:23.971Z,81.10
2018-08-31T02:46:52.320Z,80.90
2018-08-31T02:49:20.615Z,80.80
2018-08-31T02:51:48.894Z,81.10
2018-08-31T02:54:17.227Z,81.10
2018-08-31T02:56:45.583Z,81.10
2018-08-31T03:01:55.065Z,81.20
2018-08-31T03:04:23.427Z,81.20
2018-08-31T03:06:51.724Z,81.20
2018-08-31T03:09:19.966Z,81.30
2018-08-31T03:11:48.222Z,81.30
2018-08-31T03:14:16.478Z,81.40
2018-08-31T03:16:44.754Z,81.60
2018-08-31T03:19:13.022Z,81.60
2018-08-31T03:21:41.302Z,81.60
2018-08-31T03:24:09.622Z,81.60
2018-08-31T03:26:37.899Z,82.00
2018-08-31T03:29:06.212Z,82.90
2018-08-31T03:31:34.514Z,83.70
2018-08-31T03:34:02.730Z,83.80
2018-08-31T03:36:31.005Z,84.10
2018-08-31T03:38:59.282Z,84.10
2018-08-31T03:41:27.590Z,83.90
2018-08-31T03:43:55.849Z,83.60
2018-08-31T03:46:24.094Z,83.30
2018-08-31T03:48:52.366Z,83.00
2018-08-31T03:51:20.647Z,83.30
2018-08-31T03:53:48.971Z,83.80
2018-08-31T03:56:17.211Z,83.70
2018-08-31T03:58:45.476Z,83.90
2018-08-31T04:01:13.775Z,83.70
2018-08-31T04:06:16.701Z,84.00
2018-08-31T04:08:44.997Z,84.50
2018-08-31T04:11:13.262Z,84.90
2018-08-31T04:13:41.577Z,85.10
2018-08-31T04:16:09.864Z,85.00
2018-08-31T04:18:38.330Z,84.70
2018-08-31T04:21:06.584Z,84.40
2018-08-31T04:23:34.925Z,84.00
2018-08-31T04:26:03.228Z,84.20
2018-08-31T04:28:31.574Z,84.30
2018-08-31T04:30:59.849Z,84.40
2018-08-31T04:33:28.103Z,84.30
2018-08-31T04:35:56.370Z,84.00
2018-08-31T04:38:24.687Z,84.00
2018-08-31T04:40:53.011Z,84.00
2018-08-31T04:43:21.295Z,83.90
2018-08-31T04:45:49.555Z,84.80
2018-08-31T04:48:17.776Z,84.90
2018-08-31T04:50:46.022Z,85.80
2018-08-31T04:53:14.253Z,85.40
2018-08-31T04:55:42.556Z,85.20
2018-08-31T04:58:10.871Z,85.30
2018-08-31T05:00:39.137Z,85.10
2018-08-31T05:03:07.466Z,85.10
2018-08-31T05:05:35.990Z,85.40
2018-08-31T05:08:04.224Z,84.90
2018-08-31T05:10:32.528Z,84.40
2018-08-31T05:13:00.802Z,84.30
2018-08-31T05:15:29.043Z,84.00
2018-08-31T05:17:57.299Z,83.10
2018-08-31T05:20:25.790Z,82.60
2018-08-31T05:22:54.077Z,82.10
2018-08-31T05:25:22.273Z,81.50
2018-08-31T05:27:50.585Z,81.00
2018-08-31T05:30:18.866Z,80.90
2018-08-31T05:32:47.120Z,80.60
2018-08-31T05:35:15.345Z,80.10
2018-08-31T05:37:43.839Z,79.50
2018-08-31T05:40:12.062Z,78.50
2018-08-31T05:42:40.317Z,78.50
2018-08-31T05:45:08.652Z,78.10
2018-08-31T05:47:37.136Z,77.70
2018-08-31T05:50:05.622Z,77.30
2018-08-31T05:52:34.225Z,77.10
2018-08-31T05:55:02.456Z,76.70
2018-08-31T05:57:30.812Z,76.30
2018-08-31T05:59:59.074Z,76.20
2018-08-31T06:02:27.375Z,76.10
2018-08-31T06:04:55.638Z,75.90
2018-08-31T06:07:23.960Z,75.80
2018-08-31T06:09:52.503Z,75.70
2018-08-31T06:12:20.761Z,75.60
2018-08-31T06:14:49.051Z,75.20
2018-08-31T06:17:17.413Z,75.20
2018-08-31T06:19:45.753Z,75.20
2018-08-31T06:22:14.094Z,74.90
2018-08-31T06:24:42.374Z,74.80
2018-08-31T06:27:10.774Z,74.30
2018-08-31T06:29:38.952Z,74.30
2018-08-31T06:32:07.357Z,74.20
2018-08-31T06:34:35.672Z,74.20
2018-08-31T06:37:03.911Z,74.30
2018-08-31T06:39:32.126Z,74.70
2018-08-31T06:42:00.313Z,74.30
2018-08-31T06:44:28.510Z,73.90
2018-08-31T06:46:56.783Z,73.60
2018-08-31T06:49:25.001Z,73.70
2018-08-31T06:51:53.255Z,73.40
2018-08-31T06:54:21.449Z,73.40
2018-08-31T06:56:50.118Z,73.10
2018-08-31T06:59:18.420Z,73.00
2018-08-31T07:01:46.628Z,72.40
2018-08-31T07:04:15.009Z,72.30
2018-08-31T07:06:43.368Z,72.10
2018-08-31T07:09:12.217Z,73.10
2018-08-31T07:11:40.758Z,74.80
2018-08-31T07:14:09.498Z,75.80
2018-08-31T07:16:37.782Z,77.00
2018-08-31T07:19:06.610Z,77.40
2018-08-31T07:21:34.867Z,77.90
2018-08-31T07:24:03.105Z,78.50
2018-08-31T07:26:31.423Z,79.10
2018-08-31T07:28:59.610Z,79.40
2018-08-31T07:31:27.804Z,78.90
2018-08-31T07:33:56.090Z,78.70
2018-08-31T07:36:24.413Z,78.40
2018-08-31T07:38:52.604Z,78.60
2018-08-31T07:41:20.868Z,77.00
2018-08-31T07:43:49.160Z,76.80
2018-08-31T07:46:17.405Z,75.30
2018-08-31T07:48:45.664Z,74.80
2018-08-31T07:51:13.936Z,74.20
2018-08-31T07:53:42.301Z,73.90
2018-08-31T07:56:10.703Z,73.20
2018-08-31T07:58:39.049Z,72.50
2018-08-31T08:01:07.331Z,72.00
2018-08-31T08:03:35.639Z,71.60
2018-08-31T08:06:03.878Z,70.60
2018-08-31T08:08:32.168Z,69.60
2018-08-31T08:11:00.448Z,69.50
2018-08-31T08:13:28.830Z,68.10
2018-08-31T08:15:58.603Z,67.60
2018-08-31T08:18:26.867Z,68.00
2018-08-31T08:20:55.182Z,67.20
2018-08-31T08:23:23.409Z,67.60
2018-08-31T08:25:51.778Z,67.20
2018-08-31T08:28:20.152Z,65.80
2018-08-31T08:30:48.320Z,64.80
2018-08-31T08:33:16.931Z,64.60
2018-08-31T08:35:45.184Z,64.20
2018-08-31T08:38:13.554Z,63.90
2018-08-31T08:40:41.909Z,62.60
2018-08-31T08:43:10.210Z,62.90
2018-08-31T08:45:38.652Z,63.90
2018-08-31T08:48:07.179Z,64.20
2018-08-31T08:50:35.425Z,64.80
2018-08-31T08:53:04.036Z,65.10
2018-08-31T08:55:32.420Z,65.30
2018-08-31T08:58:00.919Z,65.30
2018-08-31T09:00:29.427Z,65.30
2018-08-31T09:02:57.735Z,64.70
2018-08-31T09:05:25.958Z,64.20
2018-08-31T09:07:54.336Z,63.80
2018-08-31T09:10:22.662Z,62.90
2018-08-31T09:12:50.910Z,62.40
2018-08-31T09:15:19.149Z,62.00
2018-08-31T09:17:47.384Z,60.70
2018-08-31T09:20:15.600Z,59.40
2018-08-31T09:22:43.819Z,59.20
2018-08-31T09:25:12.178Z,57.90
2018-08-31T09:27:40.461Z,57.60
2018-08-31T09:30:13.043Z,55.00
2018-08-31T09:32:41.495Z,55.30
2018-08-31T09:35:09.738Z,55.60
2018-08-31T09:37:37.987Z,55.60
2018-08-31T09:40:06.228Z,55.00
2018-08-31T09:42:34.434Z,54.70
2018-08-31T09:45:02.834Z,53.60
2018-08-31T09:47:31.029Z,53.10
2018-08-31T09:49:59.272Z,52.90
2018-08-31T09:52:27.614Z,53.20
2018-08-31T09:54:55.885Z,54.20
2018-08-31T09:57:24.128Z,53.20
2018-08-31T09:59:52.354Z,52.40
2018-08-31T10:02:24.734Z,51.90
2018-08-31T10:04:53.031Z,52.00
2018-08-31T10:07:21.329Z,52.10
2018-08-31T10:09:49.797Z,50.80
2018-08-31T10:12:18.177Z,50.40
2018-08-31T10:14:46.558Z,50.40
2018-08-31T10:17:14.902Z,50.40
2018-08-31T10:19:43.196Z,49.70
2018-08-31T10:22:11.498Z,49.30
2018-08-31T10:24:39.754Z,48.60
2018-08-31T10:27:08.732Z,48.10
2018-08-31T10:29:36.929Z,48.00
2018-08-31T10:32:05.306Z,47.80
2018-08-31T10:34:33.552Z,48.20
2018-08-31T10:37:01.832Z,48.30
2018-08-31T10:39:30.062Z,48.50
2018-08-31T10:41:58.369Z,48.60
2018-08-31T10:44:26.746Z,48.30
2018-08-31T10:46:54.986Z,47.40
2018-08-31T10:49:23.255Z,47.70
2018-08-31T10:51:51.498Z,46.40
2018-08-31T10:54:19.717Z,47.00
2018-08-31T10:56:48.075Z,46.80
2018-08-31T10:59:16.367Z,47.00
2018-08-31T11:01:44.606Z,47.10
2018-08-31T11:04:13.074Z,46.80
2018-08-31T11:06:42.038Z,46.90
2018-08-31T11:09:10.378Z,46.50
2018-08-31T11:11:38.868Z,46.60
2018-08-31T11:14:07.110Z,44.90
2018-08-31T11:16:35.341Z,44.70
2018-08-31T11:19:03.750Z,44.60
2018-08-31T11:21:32.006Z,45.30
2018-08-31T11:24:00.291Z,45.20
2018-08-31T11:26:28.538Z,45.20
2018-08-31T11:28:56.861Z,46.00
2018-08-31T11:31:25.081Z,46.00
2018-08-31T11:33:54.417Z,46.20
2018-08-31T11:36:22.841Z,45.50
2018-08-31T11:38:51.094Z,43.70
2018-08-31T11:41:19.314Z,43.00
2018-08-31T11:43:47.684Z,44.20
2018-08-31T11:46:15.920Z,44.60
2018-08-31T11:48:44.390Z,43.50
2018-08-31T11:51:12.650Z,43.20
2018-08-31T11:53:40.955Z,43.50
2018-08-31T11:56:09.201Z,43.60
2018-08-31T11:58:37.523Z,43.40
2018-08-31T12:01:07.176Z,43.00
2018-08-31T12:03:35.417Z,42.40
2018-08-31T12:06:03.715Z,41.70
2018-08-31T12:08:31.998Z,41.10
2018-08-31T12:11:00.301Z,40.70
2018-08-31T12:13:28.619Z,40.40
2018-08-31T12:15:56.866Z,40.40
2018-08-31T12:18:25.557Z,39.80
2018-08-31T12:20:53.910Z,39.60
2018-08-31T12:23:22.130Z,39.80
2018-08-31T12:25:50.366Z,40.50
2018-08-31T12:28:18.863Z,41.00
2018-08-31T12:30:47.119Z,41.10
2018-08-31T12:33:15.475Z,42.10
2018-08-31T12:35:44.001Z,42.50
2018-08-31T12:38:12.249Z,42.20
2018-08-31T12:40:40.930Z,42.60
2018-08-31T12:43:09.201Z,41.00
2018-08-31T12:45:37.446Z,40.80
2018-08-31T12:48:05.726Z,40.20
2018-08-31T12:50:33.988Z,40.10
2018-08-31T12:53:02.283Z,39.60
2018-08-31T12:55:30.625Z,40.20
2018-08-31T12:57:58.931Z,40.90
2018-08-31T13:00:27.293Z,41.90
2018-08-31T13:02:55.887Z,42.60
2018-08-31T13:05:24.153Z,42.90
2018-08-31T13:07:52.550Z,42.80
2018-08-31T13:10:20.997Z,42.20
2018-08-31T13:12:49.289Z,41.40
2018-08-31T13:15:17.654Z,41.30
2018-08-31T13:17:45.925Z,41.10
2018-08-31T13:20:14.311Z,40.00
2018-08-31T13:22:42.703Z,40.10
2018-08-31T13:25:11.047Z,40.30
2018-08-31T13:27:39.259Z,40.60
2018-08-31T13:30:07.790Z,41.20
2018-08-31T13:32:36.038Z,41.00
2018-08-31T13:35:04.356Z,40.90
2018-08-31T13:37:32.594Z,40.60
2018-08-31T13:40:00.905Z,40.10
2018-08-31T13:42:29.140Z,40.70
2018-08-31T13:44:57.417Z,39.80
2018-08-31T13:47:25.758Z,40.00
2018-08-31T13:49:54.242Z,39.30
2018-08-31T13:52:22.506Z,38.80
2018-08-31T13:54:51.525Z,39.90
2018-08-31T13:57:19.803Z,40.20
2018-08-31T13:59:48.150Z,39.90
2018-08-31T14:02:20.485Z,40.00
2018-08-31T14:04:48.724Z,40.30
2018-08-31T14:07:17.034Z,40.10
2018-08-31T14:09:45.314Z,39.60
2018-08-31T14:12:13.562Z,40.30
2018-08-31T14:14:41.878Z,40.80
2018-08-31T14:17:10.148Z,40.40
2018-08-31T14:19:38.414Z,39.60
2018-08-31T14:22:07.087Z,39.80
2018-08-31T14:24:35.392Z,39.90
2018-08-31T14:27:03.635Z,40.30
2018-08-31T14:29:31.949Z,40.60
2018-08-31T14:32:00.206Z,41.00
2018-08-31T14:34:28.577Z,40.70
2018-08-31T14:36:56.842Z,40.70
2018-08-31T14:39:25.213Z,40.70
2018-08-31T14:41:53.436Z,40.90
2018-08-31T14:44:21.675Z,41.00
2018-08-31T14:46:50.048Z,41.10
2018-08-31T14:49:18.482Z,40.80
2018-08-31T14:51:46.728Z,40.60
2018-08-31T14:54:21.676Z,40.50
2018-08-31T14:56:49.896Z,40.80
2018-08-31T14:59:18.615Z,40.10
2018-08-31T15:01:47.020Z,39.80
2018-08-31T15:04:15.619Z,39.50
2018-08-31T15:06:44.139Z,40.20
2018-08-31T15:09:12.428Z,39.20
2018-08-31T15:11:40.913Z,39.20
2018-08-31T15:14:10.903Z,39.40
2018-08-31T15:16:39.628Z,39.50
2018-08-31T15:19:08.065Z,39.20
2018-08-31T15:21:36.504Z,39.10
2018-08-31T15:24:07.936Z,39.50
2018-08-31T15:26:36.256Z,40.30
2018-08-31T15:29:04.675Z,39.70
2018-08-31T15:31:33.044Z,40.00
2018-08-31T15:34:01.644Z,40.40
2018-08-31T15:36:29.959Z,41.00
2018-08-31T15:38:58.322Z,41.50
2018-08-31T15:41:26.611Z,41.90
2018-08-31T15:43:55.307Z,42.00
2018-08-31T15:46:23.593Z,42.30
2018-08-31T15:48:51.927Z,42.00
2018-08-31T15:51:21.306Z,41.90
2018-08-31T15:53:49.574Z,41.70
2018-08-31T15:56:17.864Z,41.60
2018-08-31T15:58:46.083Z,41.70
2018-08-31T16:01:14.458Z,41.80
2018-08-31T16:03:42.700Z,42.00
2018-08-31T16:06:10.962Z,42.20
2018-08-31T16:08:39.225Z,42.20
2018-08-31T16:11:07.613Z,42.40
2018-08-31T16:13:35.865Z,42.40
2018-08-31T16:16:04.209Z,42.60
2018-08-31T16:18:32.730Z,42.80
2018-08-31T16:21:01.315Z,42.90
2018-08-31T16:23:29.504Z,42.60
2018-08-31T16:25:57.818Z,42.60
2018-08-31T16:28:26.109Z,42.60
2018-08-31T16:30:54.324Z,42.70
2018-08-31T16:33:22.559Z,43.40
2018-08-31T16:35:50.792Z,43.70
2018-08-31T16:38:19.074Z,44.00
2018-08-31T16:40:53.869Z,44.30
2018-08-31T16:43:22.145Z,44.40
2018-08-31T16:45:53.796Z,44.60
2018-08-31T16:48:22.138Z,44.80
2018-08-31T16:50:50.393Z,44.50
2018-08-31T16:55:54.012Z,43.80
2018-08-31T16:58:22.356Z,43.90
2018-08-31T17:00:50.600Z,43.90
2018-08-31T17:03:19.196Z,43.90
2018-08-31T17:05:52.630Z,43.80
2018-08-31T17:08:20.956Z,43.90
2018-08-31T17:10:49.375Z,43.90
2018-08-31T17:13:17.663Z,43.90
2018-08-31T17:15:45.989Z,43.90
2018-08-31T17:18:14.271Z,43.90
2018-08-31T17:20:43.078Z,43.80
2018-08-31T17:23:11.319Z,42.80
2018-08-31T17:25:39.589Z,41.90
2018-08-31T17:28:13.261Z,41.20
2018-08-31T17:30:41.559Z,41.50
2018-08-31T17:33:15.233Z,41.50
2018-08-31T17:35:48.871Z,41.40
2018-08-31T17:38:17.131Z,41.70
2018-08-31T17:40:45.375Z,42.40
2018-08-31T17:43:13.584Z,43.20
2018-08-31T17:45:41.952Z,44.00
2018-08-31T17:48:10.146Z,44.50
2018-08-31T17:50:38.394Z,45.00
2018-08-31T17:53:06.711Z,45.50
2018-08-31T17:55:34.910Z,46.20
2018-08-31T17:58:03.146Z,46.50
2018-08-31T18:00:31.393Z,46.60
2018-08-31T18:02:59.759Z,46.90
2018-08-31T18:05:28.034Z,46.90
2018-08-31T18:07:56.289Z,47.10
2018-08-31T18:10:24.551Z,47.10
2018-08-31T18:12:52.930Z,47.20
2018-08-31T18:15:21.253Z,47.30
2018-08-31T18:17:49.569Z,47.90
2018-08-31T18:20:18.052Z,47.40
2018-08-31T18:22:46.284Z,47.70
2018-08-31T18:25:14.563Z,47.70
2018-08-31T18:27:42.790Z,47.80
2018-08-31T18:30:10.970Z,47.60
2018-08-31T18:32:40.898Z,47.60
2018-08-31T18:35:07.466Z,47.70
2018-08-31T18:37:35.740Z,47.70
2018-08-31T18:40:04.090Z,47.80
2018-08-31T18:42:32.210Z,47.70
2018-08-31T18:45:00.511Z,47.60
2018-08-31T18:47:28.711Z,47.50
2018-08-31T18:49:56.985Z,47.70
2018-08-31T18:52:25.207Z,47.70
2018-08-31T18:54:53.434Z,47.90
2018-08-31T18:57:21.754Z,47.70
2018-08-31T18:59:50.095Z,48.00
2018-08-31T19:02:18.294Z,47.90
2018-08-31T19:04:47.599Z,48.10
2018-08-31T19:07:15.886Z,48.30
2018-08-31T19:09:44.154Z,48.50
2018-08-31T19:12:12.535Z,48.50
2018-08-31T19:14:40.750Z,48.40
2018-08-31T19:17:09.291Z,48.70
2018-08-31T19:19:37.522Z,48.80
2018-08-31T19:22:05.781Z,48.90
2018-08-31T19:24:33.982Z,49.10
2018-08-31T19:27:02.352Z,49.20
2018-08-31T19:29:30.568Z,49.50
2018-08-31T19:31:58.755Z,49.70
2018-08-31T19:34:26.949Z,50.00
2018-08-31T19:36:55.269Z,50.10
2018-08-31T19:39:23.526Z,50.10
2018-08-31T19:41:51.799Z,50.70
2018-08-31T19:44:20.025Z,50.30
2018-08-31T19:46:48.299Z,50.50
2018-08-31T19:49:16.457Z,50.70
2018-08-31T19:51:44.727Z,50.80
2018-08-31T19:54:12.953Z,51.20
2018-08-31T19:56:41.229Z,50.80
2018-08-31T19:59:09.446Z,51.60
2018-08-31T20:01:37.689Z,51.80
2018-08-31T20:04:05.896Z,52.00
2018-08-31T20:06:34.501Z,52.00
2018-08-31T20:09:02.682Z,51.90
2018-08-31T20:11:30.897Z,51.90
2018-08-31T20:13:59.142Z,52.70
2018-08-31T20:16:27.407Z,52.00
2018-08-31T20:18:55.622Z,52.00
2018-08-31T20:21:23.897Z,52.20
2018-08-31T20:23:52.191Z,52.20
2018-08-31T20:26:20.340Z,52.30
2018-08-31T20:28:48.599Z,52.60
2018-08-31T20:31:16.783Z,52.80
2018-08-31T20:33:45.011Z,53.00
2018-08-31T20:36:13.339Z,53.50
2018-08-31T20:38:41.694Z,53.70
2018-08-31T20:41:10.054Z,53.80
2018-08-31T20:43:38.324Z,53.90
2018-08-31T20:46:06.679Z,54.10
2018-08-31T20:48:34.860Z,54.30
2018-08-31T20:51:03.155Z,54.40
2018-08-31T20:53:31.478Z,54.50
2018-08-31T20:55:59.755Z,55.20
2018-08-31T20:58:27.986Z,55.10
2018-08-31T21:00:56.351Z,55.40
2018-08-31T21:03:24.601Z,55.70
2018-08-31T21:05:52.879Z,55.50
2018-08-31T21:08:21.266Z,55.30
2018-08-31T21:10:49.556Z,55.50
2018-08-31T21:15:52.390Z,56.10
2018-08-31T21:18:20.659Z,55.70
2018-08-31T21:20:49.070Z,55.70
2018-08-31T21:23:17.286Z,55.60
2018-08-31T21:25:45.574Z,55.70
2018-08-31T21:28:13.771Z,55.80
2018-08-31T21:30:41.974Z,55.90
2018-08-31T21:33:17.048Z,56.20
2018-08-31T21:35:45.373Z,56.10
2018-08-31T21:38:13.597Z,56.40
2018-08-31T21:40:41.818Z,56.50
2018-08-31T21:43:10.089Z,56.10
2018-08-31T21:45:39.254Z,56.30
2018-08-31T21:48:07.526Z,56.40
2018-08-31T21:50:35.759Z,57.30
2018-08-31T21:53:03.974Z,56.60
2018-08-31T21:55:32.469Z,57.00
2018-08-31T21:58:00.729Z,57.10
2018-08-31T22:00:29.051Z,58.00
2018-08-31T22:02:57.269Z,57.20
2018-08-31T22:05:25.461Z,57.20
2018-08-31T22:07:53.691Z,57.20
2018-08-31T22:10:21.899Z,57.00
2018-08-31T22:12:50.146Z,57.00
2018-08-31T22:15:23.227Z,57.40
2018-08-31T22:17:52.030Z,57.40
2018-08-31T22:20:20.603Z,57.40
2018-08-31T22:22:49.097Z,57.10
2018-08-31T22:25:17.390Z,57.30
2018-08-31T22:27:45.614Z,57.50
2018-08-31T22:30:14.123Z,57.80
2018-08-31T22:32:42.347Z,58.00
2018-08-31T22:35:10.571Z,58.20
2018-08-31T22:37:38.770Z,58.40
2018-08-31T22:40:07.008Z,58.40
2018-08-31T22:42:35.241Z,58.60
2018-08-31T22:45:03.476Z,58.80
2018-08-31T22:47:31.703Z,58.70
2018-08-31T22:49:59.918Z,58.80
2018-08-31T22:52:28.245Z,59.40
2018-08-31T22:54:56.593Z,59.60
2018-08-31T22:57:24.810Z,59.90
2018-08-31T22:59:53.054Z,60.10
2018-08-31T23:02:21.337Z,60.30
2018-08-31T23:04:49.939Z,60.30
2018-08-31T23:07:23.489Z,60.10
2018-08-31T23:09:51.701Z,60.20
2018-08-31T23:12:19.941Z,60.70
2018-08-31T23:14:48.221Z,61.10
2018-08-31T23:17:16.458Z,61.60
2018-08-31T23:19:44.684Z,62.40
2018-08-31T23:22:12.945Z,63.10
2018-08-31T23:24:41.235Z,63.60
2018-08-31T23:27:09.513Z,64.30
2018-08-31T23:29:37.751Z,64.90
2018-08-31T23:34:40.587Z,66.00
2018-08-31T23:37:08.866Z,66.00
2018-08-31T23:39:37.226Z,66.10
2018-08-31T23:42:05.979Z,66.30
2018-08-31T23:44:34.202Z,66.60
2018-08-31T23:47:02.504Z,67.00
2018-08-31T23:49:30.750Z,67.20
2018-08-31T23:51:58.992Z,67.50
2018-08-31T23:54:27.303Z,67.60
2018-08-31T23:56:55.579Z,67.90
2018-08-31T23:59:23.822Z,67.70
